sensor_id;sensor_type;location;lat;lon;timestamp;P1;durP1;ratioP1;P2;durP2;ratioP2
24173;SDS011;12324;48.146;11.502;2023-11-18T00:01:49;21.60;;;9.93;;
24173;SDS011;12324;48.146;11.502;2023-11-18T00:04:16;17.15;;;9.75;;
24173;SDS011;12324;48.146;11.502;2023-11-18T00:06:43;17.17;;;9.63;;
24173;SDS011;12324;48.146;11.502;2023-11-18T00:09:11;17.02;;;9.93;;
24173;SDS011;12324;48.146;11.502;2023-11-18T00:11:41;15.40;;;9.18;;
24173;SDS011;12324;48.146;11.502;2023-11-18T00:14:09;18.33;;;9.68;;
24173;SDS011;12324;48.146;11.502;2023-11-18T00:16:37;16.60;;;9.45;;
24173;SDS011;12324;48.146;11.502;2023-11-18T00:19:05;16.35;;;9.68;;
24173;SDS011;12324;48.146;11.502;2023-11-18T00:21:32;16.50;;;8.80;;
24173;SDS011;12324;48.146;11.502;2023-11-18T00:23:58;17.40;;;9.15;;
24173;SDS011;12324;48.146;11.502;2023-11-18T00:26:25;15.05;;;8.48;;
24173;SDS011;12324;48.146;11.502;2023-11-18T00:28:52;12.88;;;6.75;;
24173;SDS011;12324;48.146;11.502;2023-11-18T00:31:19;14.10;;;6.90;;
24173;SDS011;12324;48.146;11.502;2023-11-18T00:33:45;11.38;;;6.28;;
24173;SDS011;12324;48.146;11.502;2023-11-18T00:36:12;13.48;;;6.53;;
24173;SDS011;12324;48.146;11.502;2023-11-18T00:38:39;10.40;;;5.15;;
24173;SDS011;12324;48.146;11.502;2023-11-18T00:41:06;10.75;;;5.28;;
24173;SDS011;12324;48.146;11.502;2023-11-18T00:43:33;12.63;;;6.03;;
24173;SDS011;12324;48.146;11.502;2023-11-18T00:46:00;11.00;;;4.88;;
24173;SDS011;12324;48.146;11.502;2023-11-18T00:48:27;11.70;;;5.93;;
24173;SDS011;12324;48.146;11.502;2023-11-18T00:50:54;14.30;;;4.80;;
24173;SDS011;12324;48.146;11.502;2023-11-18T00:53:22;10.68;;;5.25;;
24173;SDS011;12324;48.146;11.502;2023-11-18T00:55:49;9.18;;;4.97;;
24173;SDS011;12324;48.146;11.502;2023-11-18T00:58:15;8.68;;;4.55;;
24173;SDS011;12324;48.146;11.502;2023-11-18T01:00:42;9.80;;;4.70;;
24173;SDS011;12324;48.146;11.502;2023-11-18T01:03:09;8.82;;;4.68;;
24173;SDS011;12324;48.146;11.502;2023-11-18T01:05:36;8.57;;;4.38;;
24173;SDS011;12324;48.146;11.502;2023-11-18T01:08:03;10.25;;;4.85;;
24173;SDS011;12324;48.146;11.502;2023-11-18T01:10:31;7.68;;;4.32;;
24173;SDS011;12324;48.146;11.502;2023-11-18T01:12:58;10.00;;;4.60;;
24173;SDS011;12324;48.146;11.502;2023-11-18T01:15:25;8.80;;;4.30;;
24173;SDS011;12324;48.146;11.502;2023-11-18T01:17:51;11.35;;;4.68;;
24173;SDS011;12324;48.146;11.502;2023-11-18T01:20:18;7.18;;;4.10;;
24173;SDS011;12324;48.146;11.502;2023-11-18T01:22:48;8.57;;;4.30;;
24173;SDS011;12324;48.146;11.502;2023-11-18T01:25:15;7.95;;;4.22;;
24173;SDS011;12324;48.146;11.502;2023-11-18T01:27:43;7.80;;;4.20;;
24173;SDS011;12324;48.146;11.502;2023-11-18T01:30:14;7.43;;;4.05;;
24173;SDS011;12324;48.146;11.502;2023-11-18T01:32:41;7.30;;;4.03;;
24173;SDS011;12324;48.146;11.502;2023-11-18T01:35:08;9.82;;;4.30;;
24173;SDS011;12324;48.146;11.502;2023-11-18T01:37:37;8.85;;;3.95;;
24173;SDS011;12324;48.146;11.502;2023-11-18T01:40:05;8.02;;;3.75;;
24173;SDS011;12324;48.146;11.502;2023-11-18T01:42:34;8.60;;;4.13;;
24173;SDS011;12324;48.146;11.502;2023-11-18T01:45:01;9.10;;;4.43;;
24173;SDS011;12324;48.146;11.502;2023-11-18T01:47:31;8.15;;;4.10;;
24173;SDS011;12324;48.146;11.502;2023-11-18T01:49:59;10.38;;;4.55;;
24173;SDS011;12324;48.146;11.502;2023-11-18T01:52:27;9.48;;;4.32;;
24173;SDS011;12324;48.146;11.502;2023-11-18T01:54:56;8.52;;;4.50;;
24173;SDS011;12324;48.146;11.502;2023-11-18T01:57:24;7.57;;;4.10;;
24173;SDS011;12324;48.146;11.502;2023-11-18T01:59:53;8.25;;;4.55;;
24173;SDS011;12324;48.146;11.502;2023-11-18T02:02:20;8.00;;;4.47;;
24173;SDS011;12324;48.146;11.502;2023-11-18T02:04:50;7.97;;;4.35;;
24173;SDS011;12324;48.146;11.502;2023-11-18T02:07:16;8.70;;;3.80;;
24173;SDS011;12324;48.146;11.502;2023-11-18T02:09:44;7.00;;;4.05;;
24173;SDS011;12324;48.146;11.502;2023-11-18T02:15:17;9.07;;;4.30;;
24173;SDS011;12324;48.146;11.502;2023-11-18T02:17:47;8.32;;;4.30;;
24173;SDS011;12324;48.146;11.502;2023-11-18T02:20:16;10.05;;;4.72;;
24173;SDS011;12324;48.146;11.502;2023-11-18T02:22:46;10.00;;;4.72;;
24173;SDS011;12324;48.146;11.502;2023-11-18T02:25:15;8.48;;;4.30;;
24173;SDS011;12324;48.146;11.502;2023-11-18T02:27:44;10.82;;;4.22;;
24173;SDS011;12324;48.146;11.502;2023-11-18T02:30:12;8.27;;;4.25;;
24173;SDS011;12324;48.146;11.502;2023-11-18T02:35:15;8.40;;;4.13;;
24173;SDS011;12324;48.146;11.502;2023-11-18T02:37:49;10.25;;;4.43;;
24173;SDS011;12324;48.146;11.502;2023-11-18T02:40:27;8.90;;;4.55;;
24173;SDS011;12324;48.146;11.502;2023-11-18T02:42:59;10.55;;;4.60;;
24173;SDS011;12324;48.146;11.502;2023-11-18T02:45:27;7.18;;;4.13;;
24173;SDS011;12324;48.146;11.502;2023-11-18T02:47:54;8.43;;;4.32;;
24173;SDS011;12324;48.146;11.502;2023-11-18T02:50:24;10.40;;;5.13;;
24173;SDS011;12324;48.146;11.502;2023-11-18T02:52:51;12.82;;;5.10;;
24173;SDS011;12324;48.146;11.502;2023-11-18T02:55:18;10.23;;;4.85;;
24173;SDS011;12324;48.146;11.502;2023-11-18T02:57:47;9.40;;;4.93;;
24173;SDS011;12324;48.146;11.502;2023-11-18T03:00:14;9.38;;;4.60;;
24173;SDS011;12324;48.146;11.502;2023-11-18T03:02:59;10.15;;;4.80;;
24173;SDS011;12324;48.146;11.502;2023-11-18T03:05:26;9.93;;;4.82;;
24173;SDS011;12324;48.146;11.502;2023-11-18T03:07:52;7.95;;;4.07;;
24173;SDS011;12324;48.146;11.502;2023-11-18T03:10:21;7.75;;;4.25;;
24173;SDS011;12324;48.146;11.502;2023-11-18T03:12:49;8.05;;;4.57;;
24173;SDS011;12324;48.146;11.502;2023-11-18T03:15:16;11.20;;;5.47;;
24173;SDS011;12324;48.146;11.502;2023-11-18T03:17:46;10.60;;;4.45;;
24173;SDS011;12324;48.146;11.502;2023-11-18T03:20:17;9.77;;;4.85;;
24173;SDS011;12324;48.146;11.502;2023-11-18T03:22:50;9.80;;;4.53;;
24173;SDS011;12324;48.146;11.502;2023-11-18T03:25:18;8.05;;;4.20;;
24173;SDS011;12324;48.146;11.502;2023-11-18T03:27:48;10.85;;;5.10;;
24173;SDS011;12324;48.146;11.502;2023-11-18T03:30:15;10.73;;;5.10;;
24173;SDS011;12324;48.146;11.502;2023-11-18T03:32:43;11.70;;;5.85;;
24173;SDS011;12324;48.146;11.502;2023-11-18T03:35:09;11.77;;;4.97;;
24173;SDS011;12324;48.146;11.502;2023-11-18T03:37:39;9.88;;;4.95;;
24173;SDS011;12324;48.146;11.502;2023-11-18T03:40:11;11.23;;;5.32;;
24173;SDS011;12324;48.146;11.502;2023-11-18T03:42:39;10.52;;;4.93;;
24173;SDS011;12324;48.146;11.502;2023-11-18T03:45:09;8.48;;;4.63;;
24173;SDS011;12324;48.146;11.502;2023-11-18T03:47:37;10.93;;;4.90;;
24173;SDS011;12324;48.146;11.502;2023-11-18T03:50:04;9.88;;;5.45;;
24173;SDS011;12324;48.146;11.502;2023-11-18T03:52:31;11.98;;;5.65;;
24173;SDS011;12324;48.146;11.502;2023-11-18T03:54:58;11.88;;;5.50;;
24173;SDS011;12324;48.146;11.502;2023-11-18T03:57:25;12.40;;;5.30;;
24173;SDS011;12324;48.146;11.502;2023-11-18T03:59:52;11.60;;;6.10;;
24173;SDS011;12324;48.146;11.502;2023-11-18T04:02:18;14.15;;;6.65;;
24173;SDS011;12324;48.146;11.502;2023-11-18T04:04:45;13.13;;;6.72;;
24173;SDS011;12324;48.146;11.502;2023-11-18T04:07:12;12.30;;;5.85;;
24173;SDS011;12324;48.146;11.502;2023-11-18T04:09:39;12.65;;;6.45;;
24173;SDS011;12324;48.146;11.502;2023-11-18T04:12:07;13.18;;;6.57;;
24173;SDS011;12324;48.146;11.502;2023-11-18T04:14:36;12.73;;;6.25;;
24173;SDS011;12324;48.146;11.502;2023-11-18T04:17:03;13.30;;;6.47;;
24173;SDS011;12324;48.146;11.502;2023-11-18T04:19:30;14.18;;;6.78;;
24173;SDS011;12324;48.146;11.502;2023-11-18T04:21:57;10.85;;;5.22;;
24173;SDS011;12324;48.146;11.502;2023-11-18T04:24:23;13.82;;;6.72;;
24173;SDS011;12324;48.146;11.502;2023-11-18T04:26:50;13.43;;;6.35;;
24173;SDS011;12324;48.146;11.502;2023-11-18T04:29:17;12.50;;;6.38;;
24173;SDS011;12324;48.146;11.502;2023-11-18T04:31:44;13.52;;;6.70;;
24173;SDS011;12324;48.146;11.502;2023-11-18T04:34:11;12.60;;;6.53;;
24173;SDS011;12324;48.146;11.502;2023-11-18T04:36:40;13.93;;;6.45;;
24173;SDS011;12324;48.146;11.502;2023-11-18T04:39:07;14.32;;;6.35;;
24173;SDS011;12324;48.146;11.502;2023-11-18T04:41:34;10.98;;;5.82;;
24173;SDS011;12324;48.146;11.502;2023-11-18T04:44:02;12.57;;;6.00;;
24173;SDS011;12324;48.146;11.502;2023-11-18T04:46:29;12.95;;;6.57;;
24173;SDS011;12324;48.146;11.502;2023-11-18T04:48:56;12.88;;;6.43;;
24173;SDS011;12324;48.146;11.502;2023-11-18T04:51:23;12.60;;;6.32;;
24173;SDS011;12324;48.146;11.502;2023-11-18T04:53:50;11.35;;;5.65;;
24173;SDS011;12324;48.146;11.502;2023-11-18T04:56:16;12.38;;;5.82;;
24173;SDS011;12324;48.146;11.502;2023-11-18T04:58:44;13.20;;;6.32;;
24173;SDS011;12324;48.146;11.502;2023-11-18T05:01:14;12.70;;;6.05;;
24173;SDS011;12324;48.146;11.502;2023-11-18T05:03:41;11.82;;;5.85;;
24173;SDS011;12324;48.146;11.502;2023-11-18T05:06:08;12.57;;;5.63;;
24173;SDS011;12324;48.146;11.502;2023-11-18T05:08:34;13.48;;;6.25;;
24173;SDS011;12324;48.146;11.502;2023-11-18T05:11:02;10.27;;;5.32;;
24173;SDS011;12324;48.146;11.502;2023-11-18T05:13:31;11.35;;;5.25;;
24173;SDS011;12324;48.146;11.502;2023-11-18T05:16:00;13.10;;;6.03;;
24173;SDS011;12324;48.146;11.502;2023-11-18T05:18:26;12.10;;;6.03;;
24173;SDS011;12324;48.146;11.502;2023-11-18T05:20:56;11.98;;;5.88;;
24173;SDS011;12324;48.146;11.502;2023-11-18T05:23:23;12.38;;;6.00;;
24173;SDS011;12324;48.146;11.502;2023-11-18T05:25:50;12.75;;;6.10;;
24173;SDS011;12324;48.146;11.502;2023-11-18T05:28:17;11.57;;;5.90;;
24173;SDS011;12324;48.146;11.502;2023-11-18T05:30:44;13.40;;;6.85;;
24173;SDS011;12324;48.146;11.502;2023-11-18T05:33:10;10.95;;;5.72;;
24173;SDS011;12324;48.146;11.502;2023-11-18T05:35:43;14.77;;;7.25;;
24173;SDS011;12324;48.146;11.502;2023-11-18T05:38:16;13.07;;;6.40;;
24173;SDS011;12324;48.146;11.502;2023-11-18T05:40:46;13.02;;;6.45;;
24173;SDS011;12324;48.146;11.502;2023-11-18T05:43:23;13.63;;;6.53;;
24173;SDS011;12324;48.146;11.502;2023-11-18T05:45:54;12.05;;;6.03;;
24173;SDS011;12324;48.146;11.502;2023-11-18T05:48:41;17.80;;;6.88;;
24173;SDS011;12324;48.146;11.502;2023-11-18T05:51:10;14.80;;;7.05;;
24173;SDS011;12324;48.146;11.502;2023-11-18T05:53:40;12.05;;;6.32;;
24173;SDS011;12324;48.146;11.502;2023-11-18T05:56:10;12.85;;;6.20;;
24173;SDS011;12324;48.146;11.502;2023-11-18T05:58:37;15.40;;;5.70;;
24173;SDS011;12324;48.146;11.502;2023-11-18T06:01:09;13.55;;;6.70;;
24173;SDS011;12324;48.146;11.502;2023-11-18T06:03:38;14.90;;;6.93;;
24173;SDS011;12324;48.146;11.502;2023-11-18T06:06:10;16.38;;;6.78;;
24173;SDS011;12324;48.146;11.502;2023-11-18T06:08:39;14.50;;;6.53;;
24173;SDS011;12324;48.146;11.502;2023-11-18T06:11:09;12.98;;;6.50;;
24173;SDS011;12324;48.146;11.502;2023-11-18T06:13:40;13.00;;;6.55;;
24173;SDS011;12324;48.146;11.502;2023-11-18T06:16:13;11.80;;;4.88;;
24173;SDS011;12324;48.146;11.502;2023-11-18T06:18:41;14.63;;;5.72;;
24173;SDS011;12324;48.146;11.502;2023-11-18T06:21:17;14.07;;;6.28;;
24173;SDS011;12324;48.146;11.502;2023-11-18T06:23:46;14.73;;;6.07;;
24173;SDS011;12324;48.146;11.502;2023-11-18T06:26:14;16.70;;;7.00;;
24173;SDS011;12324;48.146;11.502;2023-11-18T06:28:42;12.13;;;5.80;;
24173;SDS011;12324;48.146;11.502;2023-11-18T06:31:12;14.38;;;6.85;;
24173;SDS011;12324;48.146;11.502;2023-11-18T06:33:45;14.80;;;6.82;;
24173;SDS011;12324;48.146;11.502;2023-11-18T06:38:41;12.80;;;5.72;;
24173;SDS011;12324;48.146;11.502;2023-11-18T06:41:08;12.48;;;5.63;;
24173;SDS011;12324;48.146;11.502;2023-11-18T06:43:38;14.98;;;6.68;;
24173;SDS011;12324;48.146;11.502;2023-11-18T06:49:06;10.05;;;4.78;;
24173;SDS011;12324;48.146;11.502;2023-11-18T06:51:34;14.13;;;6.47;;
24173;SDS011;12324;48.146;11.502;2023-11-18T06:54:03;13.07;;;6.45;;
24173;SDS011;12324;48.146;11.502;2023-11-18T06:56:40;14.02;;;6.97;;
24173;SDS011;12324;48.146;11.502;2023-11-18T06:59:11;14.85;;;6.57;;
24173;SDS011;12324;48.146;11.502;2023-11-18T07:01:40;14.43;;;6.40;;
24173;SDS011;12324;48.146;11.502;2023-11-18T07:04:10;14.80;;;7.18;;
24173;SDS011;12324;48.146;11.502;2023-11-18T07:06:37;13.48;;;6.15;;
24173;SDS011;12324;48.146;11.502;2023-11-18T07:09:05;14.88;;;6.78;;
24173;SDS011;12324;48.146;11.502;2023-11-18T07:11:41;13.48;;;6.32;;
24173;SDS011;12324;48.146;11.502;2023-11-18T07:14:08;13.48;;;6.05;;
24173;SDS011;12324;48.146;11.502;2023-11-18T07:16:40;14.55;;;6.82;;
24173;SDS011;12324;48.146;11.502;2023-11-18T07:19:07;15.95;;;6.75;;
24173;SDS011;12324;48.146;11.502;2023-11-18T07:21:36;13.68;;;6.28;;
24173;SDS011;12324;48.146;11.502;2023-11-18T07:24:02;14.63;;;6.35;;
24173;SDS011;12324;48.146;11.502;2023-11-18T07:26:29;13.73;;;6.55;;
24173;SDS011;12324;48.146;11.502;2023-11-18T07:28:56;14.30;;;6.60;;
24173;SDS011;12324;48.146;11.502;2023-11-18T07:31:23;14.77;;;6.88;;
24173;SDS011;12324;48.146;11.502;2023-11-18T07:33:50;15.80;;;7.18;;
24173;SDS011;12324;48.146;11.502;2023-11-18T07:36:18;17.33;;;7.35;;
24173;SDS011;12324;48.146;11.502;2023-11-18T07:38:46;14.20;;;6.63;;
24173;SDS011;12324;48.146;11.502;2023-11-18T07:41:13;12.68;;;5.72;;
24173;SDS011;12324;48.146;11.502;2023-11-18T07:43:50;16.23;;;7.00;;
24173;SDS011;12324;48.146;11.502;2023-11-18T07:46:19;16.02;;;7.07;;
24173;SDS011;12324;48.146;11.502;2023-11-18T07:48:49;13.65;;;6.00;;
24173;SDS011;12324;48.146;11.502;2023-11-18T07:51:18;16.65;;;6.13;;
24173;SDS011;12324;48.146;11.502;2023-11-18T07:53:47;13.63;;;6.97;;
24173;SDS011;12324;48.146;11.502;2023-11-18T07:56:15;15.88;;;7.15;;
24173;SDS011;12324;48.146;11.502;2023-11-18T07:58:43;14.85;;;7.18;;
24173;SDS011;12324;48.146;11.502;2023-11-18T08:01:13;16.25;;;6.72;;
24173;SDS011;12324;48.146;11.502;2023-11-18T08:03:43;13.60;;;6.35;;
24173;SDS011;12324;48.146;11.502;2023-11-18T08:06:10;14.93;;;6.70;;
24173;SDS011;12324;48.146;11.502;2023-11-18T08:08:38;13.18;;;6.35;;
24173;SDS011;12324;48.146;11.502;2023-11-18T08:11:05;12.70;;;5.78;;
24173;SDS011;12324;48.146;11.502;2023-11-18T08:13:33;12.05;;;6.03;;
24173;SDS011;12324;48.146;11.502;2023-11-18T08:16:00;14.45;;;5.88;;
24173;SDS011;12324;48.146;11.502;2023-11-18T08:18:27;12.75;;;5.30;;
24173;SDS011;12324;48.146;11.502;2023-11-18T08:20:57;12.38;;;5.53;;
24173;SDS011;12324;48.146;11.502;2023-11-18T08:23:26;13.45;;;5.85;;
24173;SDS011;12324;48.146;11.502;2023-11-18T08:25:58;14.93;;;6.05;;
24173;SDS011;12324;48.146;11.502;2023-11-18T08:28:25;13.98;;;6.68;;
24173;SDS011;12324;48.146;11.502;2023-11-18T08:30:52;14.57;;;6.28;;
24173;SDS011;12324;48.146;11.502;2023-11-18T08:33:20;14.20;;;5.40;;
24173;SDS011;12324;48.146;11.502;2023-11-18T08:35:50;11.77;;;5.40;;
24173;SDS011;12324;48.146;11.502;2023-11-18T08:38:17;11.82;;;5.25;;
24173;SDS011;12324;48.146;11.502;2023-11-18T08:40:44;11.05;;;5.30;;
24173;SDS011;12324;48.146;11.502;2023-11-18T08:43:13;10.93;;;5.10;;
24173;SDS011;12324;48.146;11.502;2023-11-18T08:45:42;11.93;;;5.00;;
24173;SDS011;12324;48.146;11.502;2023-11-18T08:48:09;10.52;;;4.50;;
24173;SDS011;12324;48.146;11.502;2023-11-18T08:50:39;13.73;;;5.90;;
24173;SDS011;12324;48.146;11.502;2023-11-18T08:53:06;11.95;;;4.30;;
24173;SDS011;12324;48.146;11.502;2023-11-18T08:55:36;10.35;;;4.13;;
24173;SDS011;12324;48.146;11.502;2023-11-18T08:58:09;9.93;;;4.43;;
24173;SDS011;12324;48.146;11.502;2023-11-18T09:00:49;9.18;;;4.57;;
24173;SDS011;12324;48.146;11.502;2023-11-18T09:03:22;10.00;;;4.38;;
24173;SDS011;12324;48.146;11.502;2023-11-18T09:06:03;11.43;;;4.22;;
24173;SDS011;12324;48.146;11.502;2023-11-18T09:08:36;7.93;;;4.15;;
24173;SDS011;12324;48.146;11.502;2023-11-18T09:11:09;10.13;;;4.07;;
24173;SDS011;12324;48.146;11.502;2023-11-18T09:13:40;9.25;;;4.10;;
24173;SDS011;12324;48.146;11.502;2023-11-18T09:16:13;8.40;;;3.67;;
24173;SDS011;12324;48.146;11.502;2023-11-18T09:18:41;7.45;;;3.88;;
24173;SDS011;12324;48.146;11.502;2023-11-18T09:21:11;12.23;;;4.70;;
24173;SDS011;12324;48.146;11.502;2023-11-18T09:23:42;8.32;;;4.00;;
24173;SDS011;12324;48.146;11.502;2023-11-18T09:26:10;8.77;;;3.67;;
24173;SDS011;12324;48.146;11.502;2023-11-18T09:28:37;10.80;;;3.97;;
24173;SDS011;12324;48.146;11.502;2023-11-18T09:31:05;6.40;;;3.65;;
24173;SDS011;12324;48.146;11.502;2023-11-18T09:33:33;7.45;;;3.63;;
24173;SDS011;12324;48.146;11.502;2023-11-18T09:36:09;5.38;;;3.00;;
24173;SDS011;12324;48.146;11.502;2023-11-18T09:38:39;7.85;;;3.90;;
24173;SDS011;12324;48.146;11.502;2023-11-18T09:41:14;10.23;;;4.45;;
24173;SDS011;12324;48.146;11.502;2023-11-18T09:43:42;6.55;;;3.67;;
24173;SDS011;12324;48.146;11.502;2023-11-18T09:46:15;10.07;;;3.85;;
24173;SDS011;12324;48.146;11.502;2023-11-18T09:48:46;9.30;;;4.20;;
24173;SDS011;12324;48.146;11.502;2023-11-18T09:51:26;6.45;;;3.58;;
24173;SDS011;12324;48.146;11.502;2023-11-18T09:54:00;6.60;;;3.40;;
24173;SDS011;12324;48.146;11.502;2023-11-18T09:56:37;7.25;;;3.38;;
24173;SDS011;12324;48.146;11.502;2023-11-18T09:59:16;6.03;;;3.42;;
24173;SDS011;12324;48.146;11.502;2023-11-18T10:01:53;8.27;;;3.63;;
24173;SDS011;12324;48.146;11.502;2023-11-18T10:04:24;6.13;;;3.38;;
24173;SDS011;12324;48.146;11.502;2023-11-18T10:06:54;6.47;;;3.38;;
24173;SDS011;12324;48.146;11.502;2023-11-18T10:09:23;7.28;;;3.20;;
24173;SDS011;12324;48.146;11.502;2023-11-18T10:12:03;5.95;;;3.40;;
24173;SDS011;12324;48.146;11.502;2023-11-18T10:14:34;6.13;;;3.15;;
24173;SDS011;12324;48.146;11.502;2023-11-18T10:17:03;5.30;;;3.00;;
24173;SDS011;12324;48.146;11.502;2023-11-18T10:22:30;5.45;;;2.90;;
24173;SDS011;12324;48.146;11.502;2023-11-18T10:24:58;7.20;;;2.92;;
24173;SDS011;12324;48.146;11.502;2023-11-18T10:27:28;7.35;;;3.20;;
24173;SDS011;12324;48.146;11.502;2023-11-18T10:29:55;4.82;;;2.42;;
24173;SDS011;12324;48.146;11.502;2023-11-18T10:32:30;5.38;;;2.60;;
24173;SDS011;12324;48.146;11.502;2023-11-18T10:35:03;8.23;;;2.95;;
24173;SDS011;12324;48.146;11.502;2023-11-18T10:37:36;4.55;;;2.40;;
24173;SDS011;12324;48.146;11.502;2023-11-18T10:40:09;6.40;;;2.60;;
24173;SDS011;12324;48.146;11.502;2023-11-18T10:42:40;4.70;;;2.60;;
24173;SDS011;12324;48.146;11.502;2023-11-18T10:45:09;6.05;;;2.90;;
24173;SDS011;12324;48.146;11.502;2023-11-18T10:47:39;5.22;;;2.42;;
24173;SDS011;12324;48.146;11.502;2023-11-18T10:50:09;5.82;;;3.13;;
24173;SDS011;12324;48.146;11.502;2023-11-18T10:52:36;4.90;;;2.53;;
24173;SDS011;12324;48.146;11.502;2023-11-18T10:55:05;5.85;;;2.25;;
24173;SDS011;12324;48.146;11.502;2023-11-18T11:00:08;4.03;;;2.30;;
24173;SDS011;12324;48.146;11.502;2023-11-18T11:05:09;3.40;;;2.20;;
24173;SDS011;12324;48.146;11.502;2023-11-18T11:07:47;4.35;;;2.13;;
24173;SDS011;12324;48.146;11.502;2023-11-18T11:10:15;4.22;;;2.50;;
24173;SDS011;12324;48.146;11.502;2023-11-18T11:12:50;3.45;;;2.08;;
24173;SDS011;12324;48.146;11.502;2023-11-18T11:15:22;3.20;;;1.98;;
24173;SDS011;12324;48.146;11.502;2023-11-18T11:17:56;4.70;;;2.10;;
24173;SDS011;12324;48.146;11.502;2023-11-18T11:20:42;4.43;;;2.28;;
24173;SDS011;12324;48.146;11.502;2023-11-18T11:23:45;4.13;;;2.15;;
24173;SDS011;12324;48.146;11.502;2023-11-18T11:26:49;4.75;;;2.17;;
24173;SDS011;12324;48.146;11.502;2023-11-18T11:29:32;3.63;;;2.40;;
24173;SDS011;12324;48.146;11.502;2023-11-18T11:32:26;5.38;;;2.97;;
24173;SDS011;12324;48.146;11.502;2023-11-18T11:35:01;4.70;;;2.10;;
24173;SDS011;12324;48.146;11.502;2023-11-18T11:37:34;5.68;;;2.47;;
24173;SDS011;12324;48.146;11.502;2023-11-18T11:40:03;3.55;;;2.35;;
24173;SDS011;12324;48.146;11.502;2023-11-18T11:42:35;2.92;;;1.67;;
24173;SDS011;12324;48.146;11.502;2023-11-18T11:45:02;4.00;;;2.35;;
24173;SDS011;12324;48.146;11.502;2023-11-18T11:47:29;5.50;;;2.08;;
24173;SDS011;12324;48.146;11.502;2023-11-18T11:50:06;2.78;;;1.50;;
24173;SDS011;12324;48.146;11.502;2023-11-18T11:52:48;1.95;;;1.58;;
24173;SDS011;12324;48.146;11.502;2023-11-18T11:55:29;5.20;;;1.52;;
24173;SDS011;12324;48.146;11.502;2023-11-18T11:58:02;3.35;;;1.73;;
24173;SDS011;12324;48.146;11.502;2023-11-18T12:00:29;4.72;;;2.28;;
24173;SDS011;12324;48.146;11.502;2023-11-18T12:03:01;3.42;;;2.13;;
24173;SDS011;12324;48.146;11.502;2023-11-18T12:05:31;6.80;;;2.08;;
24173;SDS011;12324;48.146;11.502;2023-11-18T12:08:00;3.80;;;2.10;;
24173;SDS011;12324;48.146;11.502;2023-11-18T12:10:27;2.40;;;1.73;;
24173;SDS011;12324;48.146;11.502;2023-11-18T12:13:10;4.20;;;2.03;;
24173;SDS011;12324;48.146;11.502;2023-11-18T12:18:21;5.13;;;1.80;;
24173;SDS011;12324;48.146;11.502;2023-11-18T12:20:48;2.65;;;1.60;;
24173;SDS011;12324;48.146;11.502;2023-11-18T12:23:21;4.30;;;2.23;;
24173;SDS011;12324;48.146;11.502;2023-11-18T12:25:52;6.47;;;2.13;;
24173;SDS011;12324;48.146;11.502;2023-11-18T12:28:28;2.90;;;1.58;;
24173;SDS011;12324;48.146;11.502;2023-11-18T12:31:02;3.70;;;1.80;;
24173;SDS011;12324;48.146;11.502;2023-11-18T12:36:35;3.78;;;1.88;;
24173;SDS011;12324;48.146;11.502;2023-11-18T12:42:07;4.22;;;1.75;;
24173;SDS011;12324;48.146;11.502;2023-11-18T12:44:45;3.33;;;1.60;;
24173;SDS011;12324;48.146;11.502;2023-11-18T12:47:21;3.58;;;1.90;;
24173;SDS011;12324;48.146;11.502;2023-11-18T12:49:54;7.57;;;2.00;;
24173;SDS011;12324;48.146;11.502;2023-11-18T12:52:21;2.80;;;1.73;;
24173;SDS011;12324;48.146;11.502;2023-11-18T12:54:49;3.03;;;1.73;;
24173;SDS011;12324;48.146;11.502;2023-11-18T12:57:21;3.05;;;1.60;;
24173;SDS011;12324;48.146;11.502;2023-11-18T12:59:52;5.88;;;1.88;;
24173;SDS011;12324;48.146;11.502;2023-11-18T13:02:19;4.63;;;2.03;;
24173;SDS011;12324;48.146;11.502;2023-11-18T13:04:47;5.90;;;2.20;;
24173;SDS011;12324;48.146;11.502;2023-11-18T13:07:18;2.58;;;1.30;;
24173;SDS011;12324;48.146;11.502;2023-11-18T13:09:47;4.00;;;1.90;;
24173;SDS011;12324;48.146;11.502;2023-11-18T13:12:14;4.05;;;1.80;;
24173;SDS011;12324;48.146;11.502;2023-11-18T13:14:42;4.20;;;1.88;;
24173;SDS011;12324;48.146;11.502;2023-11-18T13:17:10;5.35;;;1.80;;
24173;SDS011;12324;48.146;11.502;2023-11-18T13:19:42;4.30;;;1.83;;
24173;SDS011;12324;48.146;11.502;2023-11-18T13:22:13;5.00;;;1.90;;
24173;SDS011;12324;48.146;11.502;2023-11-18T13:24:43;2.85;;;1.58;;
24173;SDS011;12324;48.146;11.502;2023-11-18T13:27:13;5.55;;;1.50;;
24173;SDS011;12324;48.146;11.502;2023-11-18T13:29:46;4.30;;;1.77;;
24173;SDS011;12324;48.146;11.502;2023-11-18T13:32:19;3.88;;;2.33;;
24173;SDS011;12324;48.146;11.502;2023-11-18T13:34:52;3.43;;;1.77;;
24173;SDS011;12324;48.146;11.502;2023-11-18T13:37:19;5.75;;;2.03;;
24173;SDS011;12324;48.146;11.502;2023-11-18T13:39:55;3.22;;;1.75;;
24173;SDS011;12324;48.146;11.502;2023-11-18T13:42:23;6.07;;;2.33;;
24173;SDS011;12324;48.146;11.502;2023-11-18T13:44:52;2.95;;;1.85;;
24173;SDS011;12324;48.146;11.502;2023-11-18T13:47:19;4.43;;;2.00;;
24173;SDS011;12324;48.146;11.502;2023-11-18T13:49:53;5.53;;;2.03;;
24173;SDS011;12324;48.146;11.502;2023-11-18T13:52:21;4.95;;;2.10;;
24173;SDS011;12324;48.146;11.502;2023-11-18T13:54:48;4.00;;;1.67;;
24173;SDS011;12324;48.146;11.502;2023-11-18T13:57:21;4.13;;;2.10;;
24173;SDS011;12324;48.146;11.502;2023-11-18T13:59:49;6.63;;;2.13;;
24173;SDS011;12324;48.146;11.502;2023-11-18T14:02:16;5.78;;;2.15;;
24173;SDS011;12324;48.146;11.502;2023-11-18T14:04:44;3.83;;;2.10;;
24173;SDS011;12324;48.146;11.502;2023-11-18T14:07:14;4.10;;;1.92;;
24173;SDS011;12324;48.146;11.502;2023-11-18T14:09:43;5.22;;;2.17;;
24173;SDS011;12324;48.146;11.502;2023-11-18T14:12:12;5.30;;;1.73;;
24173;SDS011;12324;48.146;11.502;2023-11-18T14:14:40;4.05;;;2.00;;
24173;SDS011;12324;48.146;11.502;2023-11-18T14:17:07;4.63;;;2.00;;
24173;SDS011;12324;48.146;11.502;2023-11-18T14:19:36;4.50;;;2.25;;
24173;SDS011;12324;48.146;11.502;2023-11-18T14:22:04;3.10;;;1.77;;
24173;SDS011;12324;48.146;11.502;2023-11-18T14:24:33;4.55;;;1.90;;
24173;SDS011;12324;48.146;11.502;2023-11-18T14:27:01;3.20;;;1.85;;
24173;SDS011;12324;48.146;11.502;2023-11-18T14:29:30;3.85;;;1.58;;
24173;SDS011;12324;48.146;11.502;2023-11-18T14:31:57;5.30;;;1.85;;
24173;SDS011;12324;48.146;11.502;2023-11-18T14:34:25;4.95;;;2.03;;
24173;SDS011;12324;48.146;11.502;2023-11-18T14:36:52;2.13;;;1.70;;
24173;SDS011;12324;48.146;11.502;2023-11-18T14:39:19;3.83;;;1.80;;
24173;SDS011;12324;48.146;11.502;2023-11-18T14:41:49;2.83;;;1.70;;
24173;SDS011;12324;48.146;11.502;2023-11-18T14:44:17;6.68;;;1.95;;
24173;SDS011;12324;48.146;11.502;2023-11-18T14:46:44;4.57;;;2.03;;
24173;SDS011;12324;48.146;11.502;2023-11-18T14:49:12;6.45;;;2.50;;
24173;SDS011;12324;48.146;11.502;2023-11-18T14:51:39;5.80;;;2.80;;
24173;SDS011;12324;48.146;11.502;2023-11-18T14:54:06;6.50;;;2.30;;
24173;SDS011;12324;48.146;11.502;2023-11-18T14:56:34;5.35;;;1.95;;
24173;SDS011;12324;48.146;11.502;2023-11-18T14:59:01;4.82;;;2.70;;
24173;SDS011;12324;48.146;11.502;2023-11-18T15:01:31;4.00;;;1.80;;
24173;SDS011;12324;48.146;11.502;2023-11-18T15:03:58;4.97;;;2.10;;
24173;SDS011;12324;48.146;11.502;2023-11-18T15:06:25;4.80;;;1.80;;
24173;SDS011;12324;48.146;11.502;2023-11-18T15:08:53;6.07;;;2.15;;
24173;SDS011;12324;48.146;11.502;2023-11-18T15:11:21;5.32;;;2.08;;